createdAt,value
2022-12-01T00:00:58.525Z,0.00
2022-12-01T00:01:58.681Z,0.00
2022-12-01T00:02:58.685Z,0.00
2022-12-01T00:03:58.584Z,0.00
2022-12-01T00:04:58.604Z,0.00
2022-12-01T00:05:58.628Z,0.00
2022-12-01T00:06:58.648Z,0.00
2022-12-01T00:07:58.698Z,0.00
2022-12-01T00:08:58.682Z,0.00
2022-12-01T00:09:58.701Z,0.00
2022-12-01T00:10:58.720Z,0.00
2022-12-01T00:11:58.739Z,0.00
2022-12-01T00:12:58.760Z,0.00
2022-12-01T00:13:58.775Z,0.00
2022-12-01T00:14:58.801Z,0.00
2022-12-01T00:15:58.877Z,0.00
2022-12-01T00:16:58.894Z,0.00
2022-12-01T00:17:58.859Z,0.00
2022-12-01T00:18:58.881Z,0.00
2022-12-01T00:19:58.896Z,0.00
2022-12-01T00:20:58.915Z,0.00
2022-12-01T00:21:58.940Z,0.00
2022-12-01T00:22:58.956Z,0.00
2022-12-01T00:23:58.983Z,0.00
2022-12-01T00:24:58.995Z,0.00
2022-12-01T00:25:59.014Z,0.00
2022-12-01T00:26:59.034Z,0.00
2022-12-01T00:27:59.055Z,0.00
2022-12-01T00:28:59.070Z,0.00
2022-12-01T00:29:59.093Z,0.00
2022-12-01T00:30:59.124Z,0.00
2022-12-01T00:31:59.212Z,0.00
2022-12-01T00:32:59.152Z,0.00
2022-12-01T00:33:59.171Z,0.00
2022-12-01T00:34:59.193Z,0.00
2022-12-01T00:35:59.211Z,0.00
2022-12-01T00:36:59.233Z,0.00
2022-12-01T00:37:59.260Z,0.00
2022-12-01T00:38:59.269Z,0.00
2022-12-01T00:39:59.303Z,0.00
2022-12-01T00:40:59.311Z,0.00
2022-12-01T00:41:59.331Z,0.00
2022-12-01T00:42:59.347Z,0.00
2022-12-01T00:43:59.368Z,0.00
2022-12-01T00:44:59.387Z,0.00
2022-12-01T00:45:59.464Z,0.00
2022-12-01T00:46:59.427Z,0.00
2022-12-01T00:47:59.445Z,0.00
2022-12-01T00:48:59.464Z,0.00
2022-12-01T00:49:59.489Z,0.00
2022-12-01T00:50:59.502Z,0.00
2022-12-01T00:51:59.523Z,0.00
2022-12-01T00:52:59.549Z,0.00
2022-12-01T00:53:59.563Z,0.00
2022-12-01T00:54:59.584Z,0.00
2022-12-01T00:55:59.606Z,0.00
2022-12-01T00:56:59.622Z,0.00
2022-12-01T00:57:59.638Z,0.00
2022-12-01T00:58:59.686Z,0.00
2022-12-01T00:59:59.684Z,0.00
2022-12-01T01:00:59.739Z,0.00
2022-12-01T01:01:59.750Z,0.00
2022-12-01T01:02:59.751Z,0.00
2022-12-01T01:03:59.761Z,0.00
2022-12-01T01:04:59.780Z,0.00
2022-12-01T01:05:59.839Z,0.00
2022-12-01T01:06:59.820Z,0.00
2022-12-01T01:07:59.868Z,0.00
2022-12-01T01:08:59.859Z,0.00
2022-12-01T01:09:59.876Z,0.00
2022-12-01T01:10:59.891Z,0.00
2022-12-01T01:11:59.917Z,0.00
2022-12-01T01:12:59.935Z,0.00
2022-12-01T01:13:59.954Z,0.00
2022-12-01T01:14:59.973Z,0.00
2022-12-01T01:16:00.010Z,0.00
2022-12-01T01:17:00.058Z,0.00
2022-12-01T01:18:00.034Z,0.00
2022-12-01T01:19:00.051Z,0.00
2022-12-01T01:20:00.083Z,0.00
2022-12-01T01:21:00.094Z,0.00
2022-12-01T01:22:00.110Z,0.00
2022-12-01T01:23:00.129Z,0.00
2022-12-01T01:24:00.151Z,0.00
2022-12-01T01:25:00.177Z,0.00
2022-12-01T01:26:00.186Z,0.00
2022-12-01T01:27:00.207Z,0.00
2022-12-01T01:28:00.227Z,0.00
2022-12-01T01:29:00.247Z,0.00
2022-12-01T01:30:00.265Z,0.00
2022-12-01T01:31:00.328Z,0.00
2022-12-01T01:32:00.307Z,0.00
2022-12-01T01:33:00.331Z,0.00
2022-12-01T01:34:00.340Z,0.00
2022-12-01T01:35:00.360Z,0.00
2022-12-01T01:36:00.405Z,0.00
2022-12-01T01:37:00.403Z,0.00
2022-12-01T01:38:00.420Z,0.00
2022-12-01T01:39:00.462Z,0.00
2022-12-01T01:40:00.457Z,0.00
2022-12-01T01:41:00.479Z,0.00
2022-12-01T01:42:00.498Z,0.00
2022-12-01T01:43:00.515Z,0.00
2022-12-01T01:44:00.535Z,0.00
2022-12-01T01:45:00.557Z,0.00
2022-12-01T01:46:00.619Z,0.00
2022-12-01T01:47:00.595Z,0.00
2022-12-01T01:48:00.614Z,0.00
2022-12-01T01:49:00.638Z,0.00
2022-12-01T01:50:00.672Z,0.00
2022-12-01T01:51:00.668Z,0.00
2022-12-01T01:52:00.692Z,0.00
2022-12-01T01:53:00.711Z,0.00
2022-12-01T01:54:00.732Z,0.00
2022-12-01T01:55:00.749Z,0.00
2022-12-01T01:56:00.768Z,0.00
2022-12-01T01:57:00.788Z,0.00
2022-12-01T01:58:00.812Z,0.00
2022-12-01T01:59:00.827Z,0.00
2022-12-01T02:00:00.848Z,0.00
2022-12-01T02:01:00.901Z,0.00
2022-12-01T02:02:00.911Z,0.00
2022-12-01T02:03:00.987Z,0.00
2022-12-01T02:04:00.923Z,0.00
2022-12-01T02:05:00.944Z,0.00
2022-12-01T02:06:04.817Z,0.00
2022-12-01T02:07:00.983Z,0.00
2022-12-01T02:08:01.054Z,0.00
2022-12-01T02:09:01.024Z,0.00
2022-12-01T02:10:01.048Z,0.00
2022-12-01T02:11:01.059Z,0.00
2022-12-01T02:12:01.081Z,0.00
2022-12-01T02:13:01.127Z,0.00
2022-12-01T02:14:01.119Z,0.00
2022-12-01T02:15:01.138Z,0.00
2022-12-01T02:16:01.157Z,0.00
2022-12-01T02:17:01.243Z,0.00
2022-12-01T02:18:01.190Z,0.00
2022-12-01T02:19:01.213Z,0.00
2022-12-01T02:20:01.252Z,0.00
2022-12-01T02:21:01.277Z,0.00
2022-12-01T02:22:01.275Z,0.00
2022-12-01T02:23:01.298Z,0.00
2022-12-01T02:24:01.309Z,0.00
2022-12-01T02:25:01.332Z,0.00
2022-12-01T02:26:01.369Z,0.00
2022-12-01T02:27:01.371Z,0.00
2022-12-01T02:28:01.390Z,0.00
2022-12-01T02:29:01.411Z,0.00
2022-12-01T02:30:01.437Z,0.00
2022-12-01T02:31:01.529Z,0.00
2022-12-01T02:32:01.470Z,0.00
2022-12-01T02:33:01.498Z,0.00
2022-12-01T02:34:01.506Z,0.00
2022-12-01T02:35:01.527Z,0.00
2022-12-01T02:36:01.546Z,0.00
2022-12-01T02:37:01.568Z,0.00
2022-12-01T02:38:01.582Z,0.00
2022-12-01T02:39:01.606Z,0.00
2022-12-01T02:40:01.620Z,0.00
2022-12-01T02:41:01.646Z,0.00
2022-12-01T02:42:01.656Z,0.00
2022-12-01T02:43:01.680Z,0.00
2022-12-01T02:44:01.701Z,0.00
2022-12-01T02:45:01.724Z,0.00
2022-12-01T02:46:01.796Z,0.00
2022-12-01T02:47:01.762Z,0.00
2022-12-01T02:48:01.779Z,0.00
2022-12-01T02:49:01.798Z,0.00
2022-12-01T02:50:01.818Z,0.00
2022-12-01T02:51:01.844Z,0.00
2022-12-01T02:52:01.856Z,0.00
2022-12-01T02:53:01.883Z,0.00
2022-12-01T02:54:01.897Z,0.00
2022-12-01T02:55:01.914Z,0.00
2022-12-01T02:56:01.937Z,0.00
2022-12-01T02:57:01.955Z,0.00
2022-12-01T02:58:01.975Z,0.00
2022-12-01T02:59:01.992Z,0.00
2022-12-01T03:00:02.015Z,0.00
2022-12-01T03:01:02.098Z,0.00
2022-12-01T03:02:02.054Z,0.00
2022-12-01T03:03:02.185Z,0.00
2022-12-01T03:04:02.085Z,0.00
2022-12-01T03:05:02.108Z,0.00
2022-12-01T03:06:02.195Z,0.00
2022-12-01T03:07:02.153Z,0.00
2022-12-01T03:08:02.255Z,0.00
2022-12-01T03:09:02.225Z,0.00
2022-12-01T03:10:02.208Z,0.00
2022-12-01T03:11:02.361Z,0.00
2022-12-01T03:12:02.254Z,0.00
2022-12-01T03:13:02.281Z,0.00
2022-12-01T03:14:02.280Z,0.00
2022-12-01T03:15:02.302Z,0.00
2022-12-01T03:16:02.376Z,0.00
2022-12-01T03:17:02.340Z,0.00
2022-12-01T03:18:02.361Z,0.00
2022-12-01T03:19:02.376Z,0.00
2022-12-01T03:20:02.417Z,0.00
2022-12-01T03:21:02.418Z,0.00
2022-12-01T03:22:02.435Z,0.00
2022-12-01T03:23:02.457Z,0.00
2022-12-01T03:24:02.477Z,0.00
2022-12-01T03:25:02.541Z,0.00
2022-12-01T03:26:02.514Z,0.00
2022-12-01T03:27:02.534Z,0.00
2022-12-01T03:28:22.451Z,0.00
2022-12-01T03:29:02.575Z,0.00
2022-12-01T03:30:02.595Z,0.00
2022-12-01T03:31:02.637Z,0.00
2022-12-01T03:32:02.633Z,0.00
2022-12-01T03:33:02.653Z,0.00
2022-12-01T03:34:02.666Z,0.00
2022-12-01T03:35:02.692Z,0.00
2022-12-01T03:36:02.704Z,0.00
2022-12-01T03:37:02.726Z,0.00
2022-12-01T03:38:02.750Z,0.00
2022-12-01T03:39:02.767Z,0.00
2022-12-01T03:40:02.783Z,0.00
2022-12-01T03:41:02.811Z,0.00
2022-12-01T03:42:02.825Z,0.00
2022-12-01T03:43:02.843Z,0.00
2022-12-01T03:44:02.863Z,0.00
2022-12-01T03:45:02.880Z,0.00
2022-12-01T03:46:02.981Z,0.00
2022-12-01T03:47:02.922Z,0.00
2022-12-01T03:48:02.940Z,0.00
2022-12-01T03:49:02.961Z,0.00
2022-12-01T03:50:02.982Z,0.00
2022-12-01T03:51:02.998Z,0.00
2022-12-01T03:52:03.019Z,0.00
2022-12-01T03:53:03.039Z,0.00
2022-12-01T03:54:03.062Z,0.00
2022-12-01T03:55:03.080Z,0.00
2022-12-01T03:56:03.114Z,0.00
2022-12-01T03:57:03.114Z,0.00
2022-12-01T03:58:03.137Z,0.00
2022-12-01T03:59:03.156Z,0.00
2022-12-01T04:00:03.175Z,0.00
2022-12-01T04:01:03.216Z,0.00
2022-12-01T04:02:03.285Z,0.00
2022-12-01T04:03:03.342Z,0.00
2022-12-01T04:04:03.253Z,0.00
2022-12-01T04:05:03.270Z,0.00
2022-12-01T04:06:03.292Z,0.00
2022-12-01T04:07:03.443Z,0.00
2022-12-01T04:08:03.402Z,0.00
2022-12-01T04:09:03.360Z,0.00
2022-12-01T04:10:03.367Z,0.00
2022-12-01T04:11:03.388Z,0.00
2022-12-01T04:12:03.406Z,0.00
2022-12-01T04:13:03.430Z,0.00
2022-12-01T04:14:03.451Z,0.00
2022-12-01T04:15:03.464Z,0.00
2022-12-01T04:16:03.529Z,0.00
2022-12-01T04:17:03.532Z,0.00
2022-12-01T04:18:03.525Z,0.00
2022-12-01T04:19:03.540Z,0.00
2022-12-01T04:20:03.559Z,0.00
2022-12-01T04:21:03.579Z,0.00
2022-12-01T04:22:03.596Z,0.00
2022-12-01T04:23:03.615Z,0.00
2022-12-01T04:24:03.672Z,0.00
2022-12-01T04:25:03.655Z,0.00
2022-12-01T04:26:03.674Z,0.00
2022-12-01T04:27:03.696Z,0.00
2022-12-01T04:28:03.714Z,0.00
2022-12-01T04:29:03.736Z,0.00
2022-12-01T04:30:03.753Z,0.00
2022-12-01T04:31:03.795Z,0.00
2022-12-01T04:32:03.794Z,0.00
2022-12-01T04:33:03.807Z,0.00
2022-12-01T04:34:03.831Z,0.00
2022-12-01T04:35:03.850Z,0.00
2022-12-01T04:36:03.868Z,0.00
2022-12-01T04:37:03.889Z,0.00
2022-12-01T04:38:03.930Z,0.00
2022-12-01T04:39:03.926Z,0.00
2022-12-01T04:40:03.944Z,0.00
2022-12-01T04:41:03.966Z,0.00
2022-12-01T04:42:03.979Z,0.00
2022-12-01T04:43:04.005Z,0.00
2022-12-01T04:44:04.023Z,0.00
2022-12-01T04:45:04.039Z,0.00
2022-12-01T04:46:04.060Z,0.00
2022-12-01T04:47:04.141Z,0.00
2022-12-01T04:48:04.098Z,0.00
2022-12-01T04:49:04.124Z,0.00
2022-12-01T04:50:04.137Z,0.00
2022-12-01T04:51:04.159Z,0.00
2022-12-01T04:52:04.177Z,0.00
2022-12-01T04:53:04.194Z,0.00
2022-12-01T04:54:04.216Z,0.00
2022-12-01T04:55:04.234Z,0.00
2022-12-01T04:56:04.263Z,0.00
2022-12-01T04:57:04.272Z,0.00
2022-12-01T04:58:04.291Z,0.00
2022-12-01T04:59:04.328Z,0.00
2022-12-01T05:00:04.333Z,0.00
2022-12-01T05:01:04.434Z,0.00
2022-12-01T05:02:04.499Z,0.00
2022-12-01T05:03:04.388Z,0.00
2022-12-01T05:04:04.404Z,0.00
2022-12-01T05:05:04.427Z,0.00
2022-12-01T05:06:04.446Z,0.00
2022-12-01T05:07:04.465Z,0.00
2022-12-01T05:08:04.554Z,0.00
2022-12-01T05:09:04.502Z,0.00
2022-12-01T05:10:04.587Z,0.00
2022-12-01T05:11:04.543Z,0.00
2022-12-01T05:12:04.560Z,0.00
2022-12-01T05:13:04.580Z,0.00
2022-12-01T05:14:04.600Z,0.00
2022-12-01T05:15:04.621Z,0.00
2022-12-01T05:16:05.057Z,0.00
2022-12-01T05:17:04.656Z,0.00
2022-12-01T05:18:04.677Z,0.00
2022-12-01T05:19:04.696Z,0.00
2022-12-01T05:20:04.717Z,0.00
2022-12-01T05:21:04.735Z,0.00
2022-12-01T05:22:04.754Z,0.00
2022-12-01T05:23:06.228Z,0.00
2022-12-01T05:24:04.793Z,0.00
2022-12-01T05:25:04.814Z,0.00
2022-12-01T05:26:04.832Z,0.00
2022-12-01T05:27:04.853Z,0.00
2022-12-01T05:28:04.879Z,0.00
2022-12-01T05:29:04.891Z,0.00
2022-12-01T05:30:05.006Z,0.00
2022-12-01T05:31:04.994Z,0.00
2022-12-01T05:32:05.027Z,0.00
2022-12-01T05:33:04.969Z,0.00
2022-12-01T05:34:04.985Z,0.00
2022-12-01T05:35:05.005Z,0.00
2022-12-01T05:36:05.026Z,0.00
2022-12-01T05:37:05.042Z,0.00
2022-12-01T05:38:08.026Z,0.00
2022-12-01T05:39:05.090Z,0.00
2022-12-01T05:40:05.103Z,0.00
2022-12-01T05:41:05.118Z,0.00
2022-12-01T05:42:05.142Z,0.00
2022-12-01T05:43:05.159Z,0.00
2022-12-01T05:44:05.180Z,0.00
2022-12-01T05:45:05.196Z,0.00
2022-12-01T05:46:05.274Z,0.00
2022-12-01T05:47:05.235Z,0.00
2022-12-01T05:48:05.256Z,0.00
2022-12-01T05:49:05.273Z,0.00
2022-12-01T05:50:06.138Z,0.00
2022-12-01T05:51:05.312Z,0.00
2022-12-01T05:52:05.333Z,0.00
2022-12-01T05:53:05.359Z,0.00
2022-12-01T05:54:05.368Z,0.00
2022-12-01T05:55:05.385Z,0.00
2022-12-01T05:56:05.412Z,0.00
2022-12-01T05:57:05.426Z,0.00
2022-12-01T05:58:05.446Z,0.00
2022-12-01T05:59:05.463Z,0.00
2022-12-01T06:00:05.486Z,0.00
2022-12-01T06:01:05.512Z,0.00
2022-12-01T06:02:05.555Z,0.00
2022-12-01T06:03:05.541Z,0.00
2022-12-01T06:04:05.576Z,0.00
2022-12-01T06:05:05.633Z,0.00
2022-12-01T06:06:05.598Z,0.00
2022-12-01T06:07:05.615Z,0.00
2022-12-01T06:08:05.640Z,0.00
2022-12-01T06:09:05.657Z,0.00
2022-12-01T06:10:05.679Z,0.00
2022-12-01T06:11:05.696Z,0.00
2022-12-01T06:12:05.718Z,0.00
2022-12-01T06:13:05.736Z,0.00
2022-12-01T06:14:05.758Z,0.00
2022-12-01T06:15:05.771Z,0.00
2022-12-01T06:16:05.791Z,0.00
2022-12-01T06:17:05.810Z,0.00
2022-12-01T06:18:05.832Z,0.00
2022-12-01T06:19:05.848Z,0.00
2022-12-01T06:20:05.866Z,0.00
2022-12-01T06:21:05.905Z,0.00
2022-12-01T06:22:05.904Z,0.00
2022-12-01T06:23:05.926Z,0.00
2022-12-01T06:24:05.947Z,0.00
2022-12-01T06:25:05.964Z,0.00
2022-12-01T06:26:05.984Z,0.00
2022-12-01T06:27:05.999Z,0.00
2022-12-01T06:28:06.024Z,0.00
2022-12-01T06:29:06.042Z,0.00
2022-12-01T06:30:06.061Z,0.00
2022-12-01T06:31:06.075Z,0.00
2022-12-01T06:32:06.129Z,0.00
2022-12-01T06:33:06.118Z,0.00
2022-12-01T06:34:06.137Z,0.00
2022-12-01T06:35:06.156Z,0.00
2022-12-01T06:36:06.181Z,0.00
2022-12-01T06:37:06.191Z,0.00
2022-12-01T06:38:06.217Z,0.00
2022-12-01T06:39:06.230Z,0.00
2022-12-01T06:40:06.252Z,0.00
2022-12-01T06:41:06.272Z,0.00
2022-12-01T06:42:06.291Z,0.00
2022-12-01T06:43:06.309Z,0.00
2022-12-01T06:44:06.329Z,0.00
2022-12-01T06:45:06.346Z,4.00
2022-12-01T06:46:06.432Z,4.00
2022-12-01T06:47:06.385Z,0.00
2022-12-01T06:48:06.406Z,0.00
2022-12-01T06:49:06.425Z,4.00
2022-12-01T06:50:06.442Z,4.00
2022-12-01T06:51:06.460Z,4.00
2022-12-01T06:52:06.481Z,4.00
2022-12-01T06:53:06.499Z,4.00
2022-12-01T06:54:06.516Z,4.00
2022-12-01T06:55:06.537Z,8.00
2022-12-01T06:56:06.555Z,8.00
2022-12-01T06:57:06.573Z,8.00
2022-12-01T06:58:06.599Z,12.00
2022-12-01T06:59:06.633Z,8.00
2022-12-01T07:00:06.636Z,12.00
2022-12-01T07:01:06.694Z,12.00
2022-12-01T07:02:06.713Z,12.00
2022-12-01T07:03:06.689Z,20.00
2022-12-01T07:04:06.710Z,24.00
2022-12-01T07:05:06.730Z,32.00
2022-12-01T07:06:06.748Z,32.00
2022-12-01T07:07:06.765Z,28.00
2022-12-01T07:08:06.821Z,28.00
2022-12-01T07:09:06.801Z,32.00
2022-12-01T07:10:06.826Z,32.00
2022-12-01T07:11:06.840Z,36.00
2022-12-01T07:12:06.860Z,44.00
2022-12-01T07:13:06.880Z,52.00
2022-12-01T07:14:06.898Z,56.00
2022-12-01T07:15:06.920Z,52.00
2022-12-01T07:16:06.937Z,48.00
2022-12-01T07:17:07.019Z,56.00
2022-12-01T07:18:06.976Z,56.00
2022-12-01T07:19:06.996Z,56.00
2022-12-01T07:20:07.020Z,68.00
2022-12-01T07:21:07.036Z,80.00
2022-12-01T07:22:07.051Z,76.00
2022-12-01T07:23:07.074Z,76.00
2022-12-01T07:24:07.093Z,84.00
2022-12-01T07:25:07.111Z,92.00
2022-12-01T07:26:07.216Z,112.00
2022-12-01T07:27:07.146Z,128.00
2022-12-01T07:28:07.164Z,116.00
2022-12-01T07:29:07.204Z,128.00
2022-12-01T07:30:07.202Z,160.00
2022-12-01T07:31:07.270Z,192.00
2022-12-01T07:32:07.243Z,156.00
2022-12-01T07:33:07.264Z,144.00
2022-12-01T07:34:07.297Z,136.00
2022-12-01T07:35:07.298Z,156.00
2022-12-01T07:36:07.320Z,144.00
2022-12-01T07:37:07.335Z,140.00
2022-12-01T07:38:07.355Z,136.00
2022-12-01T07:39:07.373Z,136.00
2022-12-01T07:40:07.394Z,152.00
2022-12-01T07:41:07.414Z,164.00
2022-12-01T07:42:07.431Z,204.00
2022-12-01T07:43:07.449Z,216.00
2022-12-01T07:44:07.470Z,232.00
2022-12-01T07:45:07.490Z,224.00
2022-12-01T07:46:07.550Z,228.00
2022-12-01T07:47:07.530Z,192.00
2022-12-01T07:48:07.550Z,168.00
2022-12-01T07:49:07.568Z,164.00
2022-12-01T07:50:07.586Z,168.00
2022-12-01T07:51:07.604Z,176.00
2022-12-01T07:52:07.625Z,176.00
2022-12-01T07:53:07.641Z,184.00
2022-12-01T07:54:07.661Z,188.00
2022-12-01T07:55:07.678Z,200.00
2022-12-01T07:56:08.912Z,200.00
2022-12-01T07:57:07.715Z,200.00
2022-12-01T07:58:07.739Z,216.00
2022-12-01T07:59:07.760Z,256.00
2022-12-01T08:00:07.776Z,312.00
2022-12-01T08:01:07.819Z,368.00
2022-12-01T08:02:07.845Z,448.00
2022-12-01T08:03:07.918Z,416.00
2022-12-01T08:04:07.854Z,368.00
2022-12-01T08:05:07.874Z,340.00
2022-12-01T08:06:07.892Z,332.00
2022-12-01T08:07:07.907Z,324.00
2022-12-01T08:08:07.970Z,340.00
2022-12-01T08:09:07.950Z,388.00
2022-12-01T08:10:07.968Z,408.00
2022-12-01T08:11:07.985Z,424.00
2022-12-01T08:12:08.009Z,460.00
2022-12-01T08:13:10.693Z,528.00
2022-12-01T08:14:08.051Z,676.00
2022-12-01T08:15:08.065Z,948.00
2022-12-01T08:16:08.133Z,1000.00
2022-12-01T08:17:08.103Z,912.00
2022-12-01T08:18:08.120Z,868.00
2022-12-01T08:19:08.142Z,1032.00
2022-12-01T08:20:08.158Z,1156.00
2022-12-01T08:21:08.179Z,1176.00
2022-12-01T08:22:08.200Z,1172.00
2022-12-01T08:23:08.217Z,1292.00
2022-12-01T08:24:08.237Z,1380.00
2022-12-01T08:25:08.255Z,1372.00
2022-12-01T08:26:08.276Z,1276.00
2022-12-01T08:27:08.294Z,1168.00
2022-12-01T08:28:08.344Z,1080.00
2022-12-01T08:29:08.334Z,1080.00
2022-12-01T08:30:08.354Z,1092.00
2022-12-01T08:31:08.439Z,996.00
2022-12-01T08:32:08.391Z,972.00
2022-12-01T08:33:08.412Z,968.00
2022-12-01T08:34:08.431Z,1228.00
2022-12-01T08:35:08.451Z,1284.00
2022-12-01T08:36:08.469Z,1220.00
2022-12-01T08:37:08.492Z,1160.00
2022-12-01T08:38:08.508Z,1252.00
2022-12-01T08:39:08.527Z,1316.00
2022-12-01T08:40:08.545Z,1260.00
2022-12-01T08:41:08.564Z,1220.00
2022-12-01T08:42:08.591Z,1288.00
2022-12-01T08:43:12.365Z,1268.00
2022-12-01T08:44:08.624Z,1188.00
2022-12-01T08:45:08.645Z,1136.00
2022-12-01T08:46:08.731Z,1152.00
2022-12-01T08:47:09.543Z,1236.00
2022-12-01T08:48:08.702Z,1152.00
2022-12-01T08:49:08.729Z,1240.00
2022-12-01T08:50:08.743Z,1396.00
2022-12-01T08:51:08.760Z,1312.00
2022-12-01T08:52:08.782Z,1292.00
2022-12-01T08:53:08.798Z,1264.00
2022-12-01T08:54:08.825Z,1284.00
2022-12-01T08:55:08.837Z,1392.00
2022-12-01T08:56:08.853Z,1620.00
2022-12-01T08:57:08.876Z,1672.00
2022-12-01T08:58:08.895Z,1624.00
2022-12-01T08:59:08.915Z,1704.00
2022-12-01T09:00:08.937Z,1944.00
2022-12-01T09:01:08.954Z,2096.00
2022-12-01T09:02:09.008Z,2212.00
2022-12-01T09:03:09.043Z,2016.00
2022-12-01T09:04:09.245Z,1948.00
2022-12-01T09:05:09.030Z,2000.00
2022-12-01T09:06:09.049Z,2032.00
2022-12-01T09:07:09.072Z,2000.00
2022-12-01T09:08:09.152Z,1888.00
2022-12-01T09:09:09.109Z,1924.00
2022-12-01T09:10:09.132Z,1872.00
2022-12-01T09:11:09.149Z,1912.00
2022-12-01T09:12:09.169Z,1868.00
2022-12-01T09:13:09.184Z,1916.00
2022-12-01T09:14:09.203Z,1964.00
2022-12-01T09:15:09.225Z,2296.00
2022-12-01T09:16:09.274Z,2488.00
2022-12-01T09:17:09.263Z,2456.00
2022-12-01T09:18:09.284Z,2296.00
2022-12-01T09:19:09.295Z,1960.00
2022-12-01T09:20:09.323Z,1780.00
2022-12-01T09:21:09.341Z,1968.00
2022-12-01T09:22:09.368Z,2048.00
2022-12-01T09:23:09.378Z,1932.00
2022-12-01T09:24:09.399Z,2048.00
2022-12-01T09:25:09.418Z,2444.00
2022-12-01T09:26:13.381Z,2444.00
2022-12-01T09:27:09.453Z,2372.00
2022-12-01T09:28:09.477Z,2528.00
2022-12-01T09:29:09.497Z,2688.00
2022-12-01T09:30:09.523Z,2612.00
2022-12-01T09:31:09.607Z,2672.00
2022-12-01T09:32:09.555Z,2276.00
2022-12-01T09:33:09.573Z,2544.00
2022-12-01T09:34:09.591Z,2596.00
2022-12-01T09:35:09.613Z,2740.00
2022-12-01T09:36:09.632Z,2748.00
2022-12-01T09:37:09.651Z,2972.00
2022-12-01T09:38:09.668Z,3052.00
2022-12-01T09:39:09.690Z,3016.00
2022-12-01T09:40:09.709Z,2788.00
2022-12-01T09:41:09.730Z,2752.00
2022-12-01T09:42:09.753Z,2808.00
2022-12-01T09:43:09.766Z,2916.00
2022-12-01T09:44:09.785Z,2980.00
2022-12-01T09:45:09.808Z,3064.00
2022-12-01T09:46:09.830Z,3136.00
2022-12-01T09:47:09.926Z,3172.00
2022-12-01T09:48:09.867Z,3280.00
2022-12-01T09:49:09.883Z,3224.00
2022-12-01T09:50:09.905Z,3212.00
2022-12-01T09:51:09.935Z,3524.00
2022-12-01T09:52:17.107Z,3692.00
2022-12-01T09:54:14.440Z,3816.00
2022-12-01T09:55:14.256Z,4088.00
2022-12-01T09:57:17.993Z,4112.00
2022-12-01T09:58:17.997Z,4152.00
2022-12-01T10:00:22.486Z,4328.00
2022-12-01T10:01:27.119Z,4356.00
2022-12-01T10:03:26.029Z,4284.00
2022-12-01T10:04:26.030Z,4140.00
2022-12-01T10:06:30.625Z,4604.00
2022-12-01T10:07:30.094Z,4236.00
2022-12-01T10:09:22.987Z,3812.00
2022-12-01T10:10:23.009Z,4040.00
2022-12-01T10:12:27.487Z,4108.00
2022-12-01T10:13:27.032Z,3572.00
2022-12-01T10:15:31.032Z,3284.00
2022-12-01T10:16:31.093Z,3416.00
2022-12-01T10:18:35.545Z,3976.00
2022-12-01T10:19:35.064Z,3812.00
2022-12-01T10:21:39.098Z,3808.00
2022-12-01T10:22:39.086Z,3484.00
2022-12-01T10:24:43.575Z,3496.00
2022-12-01T10:25:43.101Z,3712.00
2022-12-01T10:27:47.129Z,3428.00
2022-12-01T10:28:47.109Z,3136.00
2022-12-01T10:30:51.596Z,3040.00
2022-12-01T10:31:51.151Z,2924.00
2022-12-01T10:33:55.132Z,2696.00
2022-12-01T10:34:55.134Z,2640.00
2022-12-01T10:36:59.696Z,2820.00
2022-12-01T10:37:59.197Z,3212.00
2022-12-01T10:39:52.619Z,3132.00
2022-12-01T10:40:52.113Z,3192.00
2022-12-01T10:42:56.610Z,2960.00
2022-12-01T10:43:56.147Z,3120.00
2022-12-01T10:46:00.260Z,3400.00
2022-12-01T10:47:00.158Z,3504.00
2022-12-01T10:48:53.630Z,3816.00
2022-12-01T10:49:53.362Z,3336.00
2022-12-01T10:51:57.594Z,3736.00
2022-12-01T10:52:57.609Z,3908.00
2022-12-01T10:53:57.625Z,4188.00
2022-12-01T10:54:57.645Z,4432.00
2022-12-01T10:55:57.661Z,4328.00
2022-12-01T10:56:57.685Z,4288.00
2022-12-01T10:57:57.727Z,4000.00
2022-12-01T10:58:57.727Z,4900.00
2022-12-01T10:59:57.745Z,5972.00
2022-12-01T11:01:00.288Z,5968.00
2022-12-01T11:01:57.985Z,6328.00
2022-12-01T11:02:57.970Z,6324.00
2022-12-01T11:03:57.867Z,6052.00
2022-12-01T11:04:57.842Z,5316.00
2022-12-01T11:05:57.862Z,4096.00
2022-12-01T11:06:57.881Z,3820.00
2022-12-01T11:07:57.934Z,3876.00
2022-12-01T11:08:57.929Z,3484.00
2022-12-01T11:09:57.943Z,3268.00
2022-12-01T11:10:57.985Z,3508.00
2022-12-01T11:11:58.001Z,3796.00
2022-12-01T11:12:58.001Z,3836.00
2022-12-01T11:13:58.025Z,4096.00
2022-12-01T11:14:58.053Z,4616.00
2022-12-01T11:15:58.063Z,4532.00
2022-12-01T11:16:58.096Z,4120.00
2022-12-01T11:17:58.101Z,4216.00
2022-12-01T11:18:58.212Z,4416.00
2022-12-01T11:19:58.167Z,4112.00
2022-12-01T11:20:58.160Z,3428.00
2022-12-01T11:21:58.198Z,3476.00
2022-12-01T11:22:58.202Z,3752.00
2022-12-01T11:23:58.223Z,4280.00
2022-12-01T11:24:58.243Z,4628.00
2022-12-01T11:25:58.264Z,4876.00
2022-12-01T11:26:58.301Z,5076.00
2022-12-01T11:27:58.303Z,4780.00
2022-12-01T11:28:58.371Z,4680.00
2022-12-01T11:29:58.340Z,4972.00
2022-12-01T11:30:58.373Z,4984.00
2022-12-01T11:31:58.477Z,4724.00
2022-12-01T11:32:58.401Z,4368.00
2022-12-01T11:33:58.423Z,4152.00
2022-12-01T11:34:58.441Z,4088.00
2022-12-01T11:35:58.466Z,4016.00
2022-12-01T11:36:58.486Z,3908.00
2022-12-01T11:38:29.309Z,3852.00
2022-12-01T11:38:58.524Z,3888.00
2022-12-01T11:39:58.542Z,3964.00
2022-12-01T11:40:58.584Z,3976.00
2022-12-01T11:41:58.584Z,3948.00
2022-12-01T11:42:58.603Z,3968.00
2022-12-01T11:44:01.827Z,4012.00
2022-12-01T11:44:58.644Z,4168.00
2022-12-01T11:45:58.752Z,4316.00
2022-12-01T11:47:21.503Z,4396.00
2022-12-01T11:47:58.708Z,4348.00
2022-12-01T11:48:58.721Z,4236.00
2022-12-01T11:49:58.776Z,4108.00
2022-12-01T11:50:58.761Z,3952.00
2022-12-01T11:51:58.787Z,3824.00
2022-12-01T11:52:58.804Z,3740.00
2022-12-01T11:53:58.823Z,3712.00
2022-12-01T11:54:58.839Z,3804.00
2022-12-01T11:55:58.862Z,3948.00
2022-12-01T11:57:31.637Z,4044.00
2022-12-01T11:57:58.904Z,4060.00
2022-12-01T11:58:58.923Z,4076.00
2022-12-01T11:59:58.941Z,4104.00
2022-12-01T12:00:58.960Z,4156.00
2022-12-01T12:01:59.043Z,4220.00
2022-12-01T12:02:59.076Z,4276.00
2022-12-01T12:03:59.023Z,4312.00
2022-12-01T12:04:59.052Z,4312.00
2022-12-01T12:06:17.824Z,4256.00
2022-12-01T12:06:59.080Z,4164.00
2022-12-01T12:07:59.181Z,4048.00
2022-12-01T12:08:59.150Z,3944.00
2022-12-01T12:09:59.141Z,3904.00
2022-12-01T12:10:59.488Z,3904.00
2022-12-01T12:11:59.182Z,3900.00
2022-12-01T12:12:59.208Z,3880.00
2022-12-01T12:13:59.226Z,3872.00
2022-12-01T12:14:59.245Z,3876.00
2022-12-01T12:15:59.264Z,3884.00
2022-12-01T12:16:59.281Z,3840.00
2022-12-01T12:17:59.330Z,3836.00
2022-12-01T12:18:59.331Z,3892.00
2022-12-01T12:20:07.801Z,3948.00
2022-12-01T12:20:59.369Z,3964.00
2022-12-01T12:21:59.384Z,3960.00
2022-12-01T12:22:59.410Z,3968.00
2022-12-01T12:23:59.422Z,3960.00
2022-12-01T12:24:59.444Z,3936.00
2022-12-01T12:25:59.458Z,3920.00
2022-12-01T12:26:59.480Z,3828.00
2022-12-01T12:27:59.497Z,3712.00
2022-12-01T12:28:59.520Z,3588.00
2022-12-01T12:29:59.541Z,3484.00
2022-12-01T12:30:59.583Z,3400.00
2022-12-01T12:31:59.577Z,3320.00
2022-12-01T12:32:59.609Z,3252.00
2022-12-01T12:33:59.621Z,3212.00
2022-12-01T12:34:59.646Z,3184.00
2022-12-01T12:35:59.657Z,3212.00
2022-12-01T12:36:59.679Z,3280.00
2022-12-01T12:37:59.698Z,3416.00
2022-12-01T12:38:59.722Z,3588.00
2022-12-01T12:39:59.743Z,3728.00
2022-12-01T12:40:59.765Z,3812.00
2022-12-01T12:41:59.781Z,3848.00
2022-12-01T12:42:59.802Z,3872.00
2022-12-01T12:43:59.820Z,3848.00
2022-12-01T12:44:59.835Z,3776.00
2022-12-01T12:45:59.925Z,3696.00
2022-12-01T12:46:59.877Z,3652.00
2022-12-01T12:47:59.896Z,3636.00
2022-12-01T12:49:59.934Z,3588.00
2022-12-01T12:50:59.962Z,3548.00
2022-12-01T12:52:06.590Z,3512.00
2022-12-01T12:52:59.996Z,3504.00
2022-12-01T12:54:00.073Z,3508.00
2022-12-01T12:55:00.037Z,3552.00
2022-12-01T12:56:00.055Z,3588.00
2022-12-01T12:57:00.099Z,3596.00
2022-12-01T12:58:00.089Z,3532.00
2022-12-01T12:59:00.109Z,3480.00
2022-12-01T13:00:00.156Z,3404.00
2022-12-01T13:01:00.158Z,3268.00
2022-12-01T13:02:00.278Z,3248.00
2022-12-01T13:03:00.242Z,3156.00
2022-12-01T13:04:00.213Z,3064.00
2022-12-01T13:05:00.233Z,2972.00
2022-12-01T13:06:00.252Z,2884.00
2022-12-01T13:07:00.274Z,2824.00
2022-12-01T13:08:00.348Z,2756.00
2022-12-01T13:09:00.309Z,2688.00
2022-12-01T13:10:00.950Z,2636.00